Time;durP1;ratioP1;P1;durP2;ratioP2;P2;SDS_P1;SDS_P2;PMS_P1;PMS_P2;Temp;Humidity;BMP_temperature;BMP_pressure;BME280_temperature;BME280_humidity;BME280_pressure;Samples;Min_cycle;Max_cycle;Signal;HPM_P1;HPM_P2
2022/08/20 00:00:25;;;;;;;10.00;5.33;;;19.80;92.80;;;;;;5036177;28;20195;-86
2022/08/20 00:02:53;;;;;;;7.03;4.70;;;19.60;94.90;;;;;;5047348;28;20186;-87
2022/08/20 00:05:38;;;;;;;7.63;5.07;;;19.60;93.30;;;;;;5051766;28;20608;-87
2022/08/20 00:08:06;;;;;;;7.47;4.60;;;19.60;93.10;;;;;;5055045;28;20205;-86
2022/08/20 00:10:34;;;;;;;9.60;4.87;;;19.40;94.70;;;;;;5045372;28;20175;-87
2022/08/20 00:13:00;;;;;;;7.37;4.83;;;19.50;94.80;;;;;;5040217;28;20213;-87
2022/08/20 00:15:32;;;;;;;7.57;4.93;;;19.40;95.10;;;;;;5038884;28;20179;-87
2022/08/20 00:17:58;;;;;;;8.73;5.23;;;19.50;95.40;;;;;;5039516;28;20193;-86
2022/08/20 00:20:28;;;;;;;10.03;5.80;;;19.70;93.90;;;;;;5039307;28;20190;-87
2022/08/20 00:22:55;;;;;;;8.87;5.00;;;19.70;92.50;;;;;;5037009;28;20195;-88
2022/08/20 00:25:23;;;;;;;10.40;5.57;;;19.60;92.90;;;;;;5036852;28;20184;-87
2022/08/20 00:27:48;;;;;;;8.70;5.47;;;19.40;96.70;;;;;;5035592;28;20184;-86
2022/08/20 00:30:17;;;;;;;8.00;5.07;;;19.20;98.40;;;;;;5035890;28;20177;-86
2022/08/20 00:32:53;;;;;;;8.30;5.10;;;19.10;98.70;;;;;;5038479;28;20221;-87
2022/08/20 00:35:22;;;;;;;9.37;5.13;;;19.00;99.80;;;;;;5037744;28;20176;-87
2022/08/20 00:37:48;;;;;;;7.53;4.97;;;19.10;99.90;;;;;;5034630;28;20196;-86
2022/08/20 00:40:17;;;;;;;13.73;5.10;;;19.00;98.70;;;;;;5034648;28;20260;-86
2022/08/20 00:42:46;;;;;;;10.53;4.80;;;19.00;98.60;;;;;;5034481;28;20204;-86
2022/08/20 00:45:17;;;;;;;9.43;5.17;;;19.00;98.70;;;;;;5034710;28;20662;-87
2022/08/20 00:47:43;;;;;;;8.53;5.23;;;19.10;98.20;;;;;;5035528;28;20617;-88
2022/08/20 00:50:15;;;;;;;10.13;4.90;;;18.90;98.50;;;;;;5035794;28;20184;-92
2022/08/20 00:52:43;;;;;;;9.80;5.37;;;18.80;99.10;;;;;;5035147;28;20751;-93
2022/08/20 00:55:11;;;;;;;10.07;5.27;;;18.80;98.70;;;;;;5035157;28;20189;-90
2022/08/20 00:57:42;;;;;;;9.97;5.30;;;18.90;98.40;;;;;;5034909;28;20268;-89
2022/08/20 01:00:13;;;;;;;13.67;6.70;;;18.90;97.90;;;;;;5034493;28;20614;-92
2022/08/20 01:02:41;;;;;;;10.43;5.33;;;18.80;98.20;;;;;;5035372;28;20200;-91
2022/08/20 01:05:08;;;;;;;11.07;5.17;;;18.90;98.60;;;;;;5035283;28;20184;-92
2022/08/20 01:07:35;;;;;;;10.43;5.27;;;18.80;98.30;;;;;;5036276;28;20220;-90
2022/08/20 01:10:11;;;;;;;10.63;5.87;;;18.80;98.10;;;;;;5035721;28;20182;-91
2022/08/20 01:12:39;;;;;;;11.30;5.23;;;18.90;96.50;;;;;;5035414;28;20233;-90
2022/08/20 01:15:11;;;;;;;9.70;5.27;;;18.70;96.50;;;;;;5035156;28;20180;-91
2022/08/20 01:17:44;;;;;;;10.50;4.80;;;18.60;95.90;;;;;;5054563;28;20218;-90
2022/08/20 01:20:21;;;;;;;9.00;4.97;;;18.50;97.80;;;;;;5058127;28;20200;-88
2022/08/20 01:23:31;;;;;;;12.00;4.80;;;18.60;96.30;;;;;;5054573;28;20193;-92
2022/08/20 01:26:36;;;;;;;9.87;5.17;;;18.60;96.20;;;;;;5038579;28;20176;-95
2022/08/20 01:29:33;;;;;;;10.07;4.77;;;18.70;96.10;;;;;;5023050;28;20183;-93
2022/08/20 01:32:01;;;;;;;10.80;5.13;;;18.70;95.10;;;;;;5035717;28;20251;-96
2022/08/20 01:34:29;;;;;;;11.17;5.40;;;18.60;96.30;;;;;;5055361;28;20204;-92
2022/08/20 01:36:57;;;;;;;9.80;5.20;;;18.60;96.90;;;;;;5058148;28;20176;-91
2022/08/20 01:39:30;;;;;;;10.53;4.67;;;18.50;98.10;;;;;;5057878;28;20176;-92
2022/08/20 01:42:34;;;;;;;10.77;4.57;;;18.50;98.20;;;;;;5057820;28;20212;-93
2022/08/20 01:45:06;;;;;;;10.17;4.23;;;18.50;97.20;;;;;;5058712;28;20186;-92
2022/08/20 01:47:34;;;;;;;12.87;4.80;;;18.50;96.20;;;;;;5058602;28;20199;-92
2022/08/20 01:50:26;;;;;;;10.07;4.20;;;18.40;96.60;;;;;;5052651;28;20232;-94
2022/08/20 01:56:24;;;;;;;10.57;4.57;;;18.30;97.30;;;;;;5053367;28;20190;-93
2022/08/20 01:59:22;;;;;;;11.47;4.30;;;18.40;95.60;;;;;;5035142;28;20180;-93
2022/08/20 02:01:48;;;;;;;8.50;4.17;;;18.30;96.60;;;;;;5041995;28;20542;-96
2022/08/20 02:04:15;;;;;;;10.57;4.50;;;18.20;98.00;;;;;;5036717;28;20535;-95
2022/08/20 02:06:45;;;;;;;12.83;4.33;;;18.20;98.50;;;;;;5037904;28;20254;-96
2022/08/20 02:09:12;;;;;;;11.37;4.47;;;18.20;98.60;;;;;;5038450;28;20552;-95
2022/08/20 02:11:38;;;;;;;10.47;4.43;;;18.20;98.80;;;;;;5047678;28;20161;-94
2022/08/20 02:14:09;;;;;;;10.30;5.00;;;18.30;95.90;;;;;;5041468;28;20184;-96
2022/08/20 02:16:38;;;;;;;12.23;4.73;;;18.10;95.70;;;;;;5037059;28;20209;-95
2022/08/20 02:19:15;;;;;;;12.23;5.03;;;18.00;97.20;;;;;;5035737;28;20250;-96
2022/08/20 02:21:47;;;;;;;9.67;4.87;;;18.00;97.80;;;;;;5035567;28;20199;-95
2022/08/20 02:24:14;;;;;;;11.37;5.13;;;18.00;98.00;;;;;;5034118;28;20201;-91
2022/08/20 02:26:40;;;;;;;12.83;5.00;;;17.80;98.90;;;;;;5051784;28;20177;-94
2022/08/20 02:29:08;;;;;;;13.77;5.80;;;17.70;99.90;;;;;;5055564;28;20189;-92
2022/08/20 02:31:38;;;;;;;15.33;6.27;;;17.70;99.90;;;;;;5056447;28;20190;-92
2022/08/20 02:34:07;;;;;;;14.83;5.97;;;17.60;99.90;;;;;;5057720;28;20177;-93
2022/08/20 02:36:36;;;;;;;11.73;4.87;;;17.60;99.90;;;;;;5042524;28;20178;-92
2022/08/20 02:39:06;;;;;;;14.17;6.10;;;17.60;99.90;;;;;;5041363;28;20266;-94
2022/08/20 02:41:35;;;;;;;13.33;5.63;;;17.60;99.90;;;;;;5044645;28;20198;-92
2022/08/20 02:44:12;;;;;;;19.57;6.97;;;17.50;99.90;;;;;;5043418;28;20185;-93
2022/08/20 02:46:38;;;;;;;15.47;5.77;;;17.60;99.90;;;;;;5039892;28;20194;-94
2022/08/20 02:49:08;;;;;;;10.13;5.37;;;17.50;99.90;;;;;;5035799;28;20264;-93
2022/08/20 02:51:34;;;;;;;13.97;6.10;;;17.50;99.90;;;;;;5037502;28;20242;-95
2022/08/20 02:54:05;;;;;;;14.53;6.40;;;17.40;99.90;;;;;;5036799;28;20200;-95
2022/08/20 02:56:31;;;;;;;16.73;6.00;;;17.50;99.90;;;;;;5035114;28;20188;-92
2022/08/20 02:58:58;;;;;;;13.80;6.20;;;17.60;99.90;;;;;;5033261;28;20178;-91
2022/08/20 03:01:24;;;;;;;16.00;6.80;;;17.60;99.90;;;;;;5033055;28;20745;-91
2022/08/20 03:03:51;;;;;;;14.53;6.57;;;17.60;99.90;;;;;;5033140;28;20199;-91
2022/08/20 03:06:20;;;;;;;14.97;6.50;;;17.50;99.90;;;;;;5016869;28;20190;-92
2022/08/20 03:08:47;;;;;;;18.63;6.97;;;17.40;99.90;;;;;;5016899;28;20712;-92
2022/08/20 03:11:13;;;;;;;16.33;7.13;;;17.40;99.90;;;;;;5033099;28;20536;-91
2022/08/20 03:13:39;;;;;;;19.40;7.13;;;17.50;99.90;;;;;;5033055;28;20240;-93
2022/08/20 03:16:06;;;;;;;18.03;7.03;;;17.40;99.90;;;;;;5033292;28;20548;-92
2022/08/20 03:18:38;;;;;;;14.53;6.43;;;17.30;99.90;;;;;;5033335;28;20198;-93
2022/08/20 03:21:06;;;;;;;17.63;6.30;;;17.40;99.90;;;;;;5033548;28;20271;-91
2022/08/20 03:23:32;;;;;;;18.17;6.57;;;17.30;99.90;;;;;;5037032;28;20203;-92
2022/08/20 03:25:59;;;;;;;12.57;6.20;;;17.20;99.90;;;;;;5037377;28;20198;-92
2022/08/20 03:28:28;;;;;;;13.83;6.70;;;17.20;99.90;;;;;;5037777;28;20207;-91
2022/08/20 03:30:58;;;;;;;16.93;7.17;;;17.20;99.90;;;;;;5038577;28;20303;-94
2022/08/20 03:33:26;;;;;;;14.63;7.00;;;17.20;99.90;;;;;;5037265;28;20206;-91
2022/08/20 03:35:52;;;;;;;15.37;6.67;;;17.20;99.90;;;;;;5037603;28;20171;-92
2022/08/20 03:38:27;;;;;;;14.73;6.63;;;17.40;99.90;;;;;;5037537;28;20202;-93
2022/08/20 03:41:00;;;;;;;16.03;7.40;;;17.40;99.90;;;;;;5037581;28;20284;-92
2022/08/20 03:43:30;;;;;;;13.17;6.53;;;17.40;99.90;;;;;;5036617;28;20286;-91
2022/08/20 03:45:57;;;;;;;15.07;7.30;;;17.40;99.90;;;;;;5021201;28;20203;-92
2022/08/20 03:48:23;;;;;;;17.80;8.17;;;17.30;99.90;;;;;;5038232;28;20197;-91
2022/08/20 03:50:50;;;;;;;15.40;6.73;;;17.30;99.90;;;;;;5037941;28;20204;-92
2022/08/20 03:53:17;;;;;;;18.17;7.03;;;17.20;99.90;;;;;;5021668;28;20227;-92
2022/08/20 03:55:45;;;;;;;17.43;7.43;;;17.10;99.90;;;;;;5038652;28;20174;-91
2022/08/20 03:58:12;;;;;;;16.40;7.03;;;17.10;99.90;;;;;;5038020;28;20240;-91
2022/08/20 04:00:46;;;;;;;17.67;7.40;;;17.10;99.90;;;;;;5057291;28;20176;-92
2022/08/20 04:03:12;;;;;;;16.53;7.23;;;17.10;99.90;;;;;;5058613;28;20204;-91
2022/08/20 04:05:40;;;;;;;18.60;6.57;;;17.00;99.90;;;;;;5055301;28;20186;-91
2022/08/20 04:08:41;;;;;;;16.97;6.67;;;17.00;99.90;;;;;;5038186;28;20641;-92
2022/08/20 04:11:16;;;;;;;18.73;7.30;;;17.10;99.90;;;;;;5036090;28;20183;-92
2022/08/20 04:13:42;;;;;;;18.47;7.57;;;17.20;99.90;;;;;;5037633;28;20224;-93
2022/08/20 04:16:08;;;;;;;18.30;7.83;;;17.10;99.90;;;;;;5036491;28;20180;-91
2022/08/20 04:18:36;;;;;;;21.87;7.40;;;17.10;99.90;;;;;;5043130;28;20189;-92
2022/08/20 04:21:04;;;;;;;15.90;7.23;;;17.10;99.90;;;;;;5057242;28;20216;-91
2022/08/20 04:23:31;;;;;;;16.47;7.80;;;17.00;99.90;;;;;;5055702;28;20265;-90
2022/08/20 04:25:58;;;;;;;17.37;7.03;;;16.90;99.90;;;;;;5053671;28;20181;-93
2022/08/20 04:28:27;;;;;;;19.50;8.03;;;17.00;99.90;;;;;;5045567;28;20222;-94
2022/08/20 04:31:13;;;;;;;20.43;7.07;;;17.10;99.90;;;;;;5047224;28;20191;-92
2022/08/20 04:33:46;;;;;;;16.70;7.30;;;17.00;99.90;;;;;;5048625;28;20221;-93
2022/08/20 04:36:13;;;;;;;18.83;8.23;;;17.20;99.90;;;;;;5048548;28;20182;-94
2022/08/20 04:38:39;;;;;;;18.23;7.97;;;17.00;99.90;;;;;;5054975;28;20177;-92
2022/08/20 04:41:47;;;;;;;16.40;7.20;;;16.90;99.90;;;;;;5053768;28;20182;-94
2022/08/20 04:44:32;;;;;;;17.07;7.93;;;16.90;99.90;;;;;;5050968;28;20184;-93
2022/08/20 04:47:00;;;;;;;19.00;7.93;;;16.90;99.90;;;;;;5047120;28;20190;-93
2022/08/20 04:49:28;;;;;;;20.20;7.23;;;16.90;99.90;;;;;;5048573;28;20177;-96
2022/08/20 04:51:56;;;;;;;19.17;8.03;;;16.90;99.90;;;;;;5048858;28;20232;-95
2022/08/20 04:54:30;;;;;;;23.40;8.47;;;16.80;99.90;;;;;;5033132;28;20173;-96
2022/08/20 04:57:00;;;;;;;23.07;8.10;;;16.80;99.90;;;;;;5047506;28;20186;-96
2022/08/20 04:59:26;;;;;;;20.70;8.17;;;16.80;99.90;;;;;;5047314;28;20209;-94
2022/08/20 05:01:52;;;;;;;22.77;8.63;;;16.80;99.90;;;;;;5029009;28;20176;-91
2022/08/20 05:04:20;;;;;;;18.70;8.23;;;16.90;99.90;;;;;;5023849;28;20263;-96
2022/08/20 05:06:49;;;;;;;17.03;7.37;;;17.00;99.90;;;;;;5044686;28;20523;-96
2022/08/20 05:09:19;;;;;;;15.47;7.83;;;17.00;99.90;;;;;;5046382;28;20258;-96
2022/08/20 05:11:54;;;;;;;20.47;8.67;;;17.10;99.90;;;;;;5047696;28;20225;-94
2022/08/20 05:14:28;;;;;;;17.17;7.47;;;17.10;99.90;;;;;;5052290;28;20185;-94
2022/08/20 05:16:57;;;;;;;18.30;7.10;;;17.20;99.90;;;;;;5044319;28;20184;-94
2022/08/20 05:19:25;;;;;;;21.93;7.90;;;17.10;99.90;;;;;;5041832;28;20169;-96
2022/08/20 05:21:52;;;;;;;18.10;7.73;;;17.00;99.90;;;;;;5039061;28;20266;-95
2022/08/20 05:24:21;;;;;;;19.60;7.63;;;17.00;99.90;;;;;;5040534;28;20192;-94
2022/08/20 05:26:48;;;;;;;17.33;7.57;;;16.90;99.90;;;;;;5044779;28;20222;-94
2022/08/20 05:29:17;;;;;;;16.43;7.37;;;16.90;99.90;;;;;;5054610;28;20177;-91
2022/08/20 05:31:43;;;;;;;18.80;7.83;;;16.90;99.90;;;;;;5054842;28;20211;-91
2022/08/20 05:34:11;;;;;;;17.93;8.07;;;16.90;99.90;;;;;;5055642;28;20170;-91
2022/08/20 05:36:46;;;;;;;18.40;7.47;;;16.90;99.90;;;;;;5038240;28;20182;-92
2022/08/20 05:39:13;;;;;;;18.13;8.00;;;16.80;99.90;;;;;;5054567;28;20180;-92
2022/08/20 05:41:40;;;;;;;20.43;8.17;;;16.70;99.90;;;;;;5055585;28;20191;-92
2022/08/20 05:44:12;;;;;;;19.37;8.67;;;16.70;99.90;;;;;;5055439;28;20169;-90
2022/08/20 05:46:41;;;;;;;23.27;8.13;;;16.80;99.90;;;;;;5055991;28;20186;-91
2022/08/20 05:49:09;;;;;;;24.43;8.77;;;16.90;99.90;;;;;;5054779;28;20172;-91
2022/08/20 05:51:38;;;;;;;18.87;7.77;;;17.00;99.90;;;;;;5055176;28;20200;-93
2022/08/20 05:54:06;;;;;;;16.60;8.20;;;17.10;99.90;;;;;;5054488;28;20175;-90
2022/08/20 05:56:32;;;;;;;20.90;7.83;;;17.10;98.90;;;;;;5055259;28;20183;-91
2022/08/20 05:59:05;;;;;;;20.07;8.30;;;17.20;98.20;;;;;;5049890;28;20191;-91
2022/08/20 06:01:36;;;;;;;14.80;7.70;;;17.10;98.70;;;;;;5035974;28;20660;-92
2022/08/20 06:07:09;;;;;;;23.27;8.63;;;17.30;98.20;;;;;;5040649;28;20193;-92
2022/08/20 06:09:40;;;;;;;17.90;7.73;;;17.40;96.00;;;;;;5038408;28;20542;-91
2022/08/20 06:12:48;;;;;;;16.30;7.20;;;17.30;94.60;;;;;;5024481;28;20273;-95
2022/08/20 06:15:19;;;;;;;20.43;7.93;;;17.40;94.10;;;;;;5039959;28;20185;-91
2022/08/20 06:18:09;;;;;;;17.63;7.43;;;17.40;94.70;;;;;;5057620;28;20190;-91
2022/08/20 06:20:37;;;;;;;16.10;7.13;;;17.50;93.60;;;;;;5057451;28;20177;-95
2022/08/20 06:23:26;;;;;;;17.77;8.50;;;17.40;93.20;;;;;;5057421;28;20227;-91
2022/08/20 06:26:25;;;;;;;17.13;8.10;;;17.50;93.50;;;;;;5041013;28;20187;-93
2022/08/20 06:32:15;;;;;;;18.87;7.80;;;17.60;92.30;;;;;;5055774;28;20219;-92
2022/08/20 06:38:11;;;;;;;16.90;7.87;;;17.90;86.70;;;;;;5053692;28;20233;-94
2022/08/20 06:41:02;;;;;;;17.43;7.77;;;18.10;82.60;;;;;;5053247;28;20168;-94
2022/08/20 06:46:51;;;;;;;16.50;7.20;;;18.10;80.00;;;;;;5058085;28;20163;-92
2022/08/20 06:49:19;;;;;;;17.70;8.40;;;18.20;78.20;;;;;;5055803;28;20170;-93
2022/08/20 06:51:45;;;;;;;13.37;7.60;;;18.30;77.20;;;;;;5054937;28;20164;-90
2022/08/20 06:54:18;;;;;;;10.33;6.47;;;18.30;77.70;;;;;;5043522;28;20527;-95
2022/08/20 06:57:22;;;;;;;19.93;8.17;;;18.50;76.20;;;;;;5043387;28;20183;-93
2022/08/20 06:59:55;;;;;;;15.67;7.90;;;18.60;72.60;;;;;;5046567;28;20246;-94
2022/08/20 07:02:26;;;;;;;18.77;8.43;;;18.60;61.20;;;;;;5053977;28;20170;-89
2022/08/20 07:04:59;;;;;;;15.43;8.33;;;18.60;67.80;;;;;;5061129;28;20188;-91
2022/08/20 07:08:05;;;;;;;;;;;;;;;;;;;;;
2022/08/20 07:10:38;;;;;;;19.03;9.10;;;18.80;63.60;;;;;;5055992;28;20227;-94
2022/08/20 07:13:06;;;;;;;15.33;7.47;;;18.80;65.30;;;;;;5033301;28;20223;-92
2022/08/20 07:15:32;;;;;;;15.83;8.13;;;18.90;64.70;;;;;;5047818;28;20220;-92
2022/08/20 07:18:02;;;;;;;14.73;7.60;;;19.00;59.60;;;;;;5047648;28;20185;-92
2022/08/20 07:20:32;;;;;;;18.37;8.90;;;19.10;55.30;;;;;;5028172;28;20181;-93
2022/08/20 07:22:59;;;;;;;13.77;7.93;;;19.20;52.70;;;;;;5049146;28;20229;-94
2022/08/20 07:25:41;;;;;;;19.63;8.13;;;19.10;51.10;;;;;;5047286;28;20180;-90
2022/08/20 07:28:13;;;;;;;21.73;8.97;;;19.10;59.20;;;;;;5039197;28;20241;-92
2022/08/20 07:33:32;;;;;;;15.40;9.13;;;19.40;52.70;;;;;;5041376;28;20224;-90
2022/08/20 07:36:00;;;;;;;15.47;8.43;;;19.40;53.80;;;;;;5040884;28;20189;-91
2022/08/20 07:38:51;;;;;;;16.03;8.67;;;19.20;59.20;;;;;;5043548;28;20190;-90
2022/08/20 07:41:19;;;;;;;18.83;8.03;;;19.40;61.60;;;;;;5042336;28;20176;-91
2022/08/20 07:43:47;;;;;;;19.60;7.97;;;19.50;58.30;;;;;;5043006;28;20178;-90
2022/08/20 07:46:32;;;;;;;16.60;8.27;;;19.70;56.00;;;;;;5047263;28;20189;-91
2022/08/20 07:49:08;;;;;;;14.10;7.10;;;19.80;52.00;;;;;;5041932;28;20188;-93
2022/08/20 07:51:36;;;;;;;17.60;7.83;;;19.90;50.10;;;;;;5038480;28;20252;-89
2022/08/20 07:54:08;;;;;;;13.57;7.70;;;20.10;46.40;;;;;;5040465;28;20216;-92
2022/08/20 07:56:34;;;;;;;15.63;8.00;;;20.30;41.70;;;;;;5038605;28;20613;-92
2022/08/20 07:59:05;;;;;;;12.23;7.87;;;20.30;37.40;;;;;;5022701;28;20183;-92
2022/08/20 08:01:34;;;;;;;15.07;7.60;;;20.40;37.10;;;;;;5047491;28;20178;-93
2022/08/20 08:04:03;;;;;;;18.67;8.13;;;20.40;36.80;;;;;;5048087;28;20181;-93
2022/08/20 08:06:36;;;;;;;15.53;8.27;;;20.50;38.90;;;;;;5046576;28;20185;-96
2022/08/20 08:09:13;;;;;;;16.13;8.30;;;20.60;35.70;;;;;;5044229;28;20280;-96
2022/08/20 08:11:56;;;;;;;18.30;8.80;;;20.70;30.30;;;;;;5046617;28;20183;-92
2022/08/20 08:14:46;;;;;;;13.17;7.97;;;20.80;29.40;;;;;;5053012;28;20526;-93
2022/08/20 08:17:18;;;;;;;18.20;8.43;;;20.70;29.60;;;;;;5054601;28;20197;-93
2022/08/20 08:19:48;;;;;;;18.90;8.13;;;20.80;29.80;;;;;;5034406;28;20185;-96
2022/08/20 08:22:18;;;;;;;11.33;7.97;;;20.90;33.60;;;;;;5053344;28;20636;-95
2022/08/20 08:24:46;;;;;;;14.93;7.77;;;21.00;31.90;;;;;;5053585;28;20198;-94
2022/08/20 08:27:14;;;;;;;15.67;8.07;;;21.10;30.50;;;;;;5050844;28;20183;-95
2022/08/20 08:29:40;;;;;;;14.77;7.90;;;21.40;23.80;;;;;;5038569;28;20177;-93
2022/08/20 08:32:09;;;;;;;15.90;8.40;;;21.30;16.30;;;;;;5023199;28;20578;-92
2022/08/20 08:34:36;;;;;;;12.40;7.17;;;21.40;15.20;;;;;;5042041;28;20188;-93
2022/08/20 08:37:04;;;;;;;13.67;7.60;;;21.40;19.40;;;;;;5038081;28;20232;-92
2022/08/20 08:39:31;;;;;;;19.67;7.27;;;21.50;15.50;;;;;;5038334;28;20562;-92
2022/08/20 08:42:02;;;;;;;14.80;7.40;;;21.70;9.60;;;;;;5020995;28;20212;-91
2022/08/20 08:44:40;;;;;;;11.90;6.37;;;21.90;6.60;;;;;;5038896;28;20188;-91
2022/08/20 08:47:17;;;;;;;12.53;7.03;;;22.10;1.00;;;;;;5025046;28;20202;-92
2022/08/20 08:49:50;;;;;;;10.83;6.13;;;22.10;1.00;;;;;;5040268;28;20226;-93
2022/08/20 08:52:22;;;;;;;13.77;6.60;;;22.00;1.00;;;;;;5039093;28;20206;-92
2022/08/20 08:54:59;;;;;;;10.50;5.10;;;21.90;1.00;;;;;;5023639;28;20188;-92
2022/08/20 08:57:27;;;;;;;12.53;5.27;;;21.90;1.00;;;;;;5040295;28;20183;-91
2022/08/20 09:00:14;;;;;;;13.83;5.97;;;21.80;1.00;;;;;;5038860;28;20180;-92
2022/08/20 09:02:55;;;;;;;12.57;5.20;;;21.80;1.00;;;;;;5045150;28;20672;-91
2022/08/20 09:05:25;;;;;;;9.10;4.50;;;21.70;1.00;;;;;;5041481;28;20240;-91
2022/08/20 09:07:56;;;;;;;11.57;4.77;;;21.80;1.00;;;;;;5040148;28;20652;-91
2022/08/20 09:10:37;;;;;;;12.00;4.40;;;21.70;1.00;;;;;;5038330;28;20194;-91
2022/08/20 09:13:07;;;;;;;14.97;5.37;;;21.90;1.00;;;;;;5041148;28;20208;-92
2022/08/20 09:15:34;;;;;;;10.57;5.53;;;21.80;1.00;;;;;;5044652;28;20653;-90
2022/08/20 09:18:02;;;;;;;9.13;4.77;;;22.00;1.00;;;;;;5043521;28;20211;-91
2022/08/20 09:20:33;;;;;;;10.23;4.43;;;22.20;1.00;;;;;;5039533;28;20233;-91
2022/08/20 09:22:58;;;;;;;9.43;3.67;;;22.30;1.00;;;;;;5042731;28;20200;-90
2022/08/20 09:25:26;;;;;;;11.40;4.10;;;22.60;1.00;;;;;;5045101;28;20212;-91
2022/08/20 09:27:56;;;;;;;9.40;2.93;;;22.90;1.00;;;;;;5055552;28;20181;-91
2022/08/20 09:30:31;;;;;;;7.93;2.90;;;22.80;1.00;;;;;;5039212;28;20264;-93
2022/08/20 09:33:03;;;;;;;6.27;2.27;;;22.70;1.00;;;;;;5049737;28;20226;-90
2022/08/20 09:35:29;;;;;;;8.67;2.73;;;22.30;99.90;;;;;;5029584;28;20246;-89
2022/08/20 09:37:58;;;;;;;7.03;2.60;;;22.30;1.00;;;;;;5044276;28;20184;-91
2022/08/20 09:40:25;;;;;;;11.80;2.80;;;22.30;99.90;;;;;;5042354;28;20185;-92
2022/08/20 09:42:54;;;;;;;11.17;3.00;;;22.50;99.90;;;;;;5042487;28;20212;-91
2022/08/20 09:45:23;;;;;;;7.57;2.10;;;22.70;99.90;;;;;;5045553;28;20206;-91
2022/08/20 09:47:58;;;;;;;7.00;2.57;;;22.50;99.90;;;;;;5057401;28;20169;-92
2022/08/20 09:50:36;;;;;;;6.87;2.37;;;22.50;99.90;;;;;;5057981;28;20224;-91
2022/08/20 09:53:25;;;;;;;10.10;2.47;;;22.50;99.90;;;;;;5057521;28;20201;-92
2022/08/20 09:55:57;;;;;;;6.37;2.20;;;22.80;1.00;;;;;;5053521;28;20235;-92
2022/08/20 09:58:54;;;;;;;8.67;2.30;;;22.80;1.00;;;;;;5050365;28;20177;-92
2022/08/20 10:01:24;;;;;;;7.13;2.13;;;22.80;99.90;;;;;;5050149;28;20625;-93
2022/08/20 10:04:16;;;;;;;7.70;2.40;;;22.70;1.00;;;;;;5050665;28;20203;-92
2022/08/20 10:06:47;;;;;;;8.47;2.03;;;22.80;1.00;;;;;;5050946;28;20636;-92
2022/08/20 10:09:29;;;;;;;10.87;3.10;;;22.70;99.90;;;;;;5052330;28;20177;-93
2022/08/20 10:11:58;;;;;;;9.80;3.00;;;22.90;1.00;;;;;;5049642;28;20176;-94
2022/08/20 10:14:38;;;;;;;8.03;2.67;;;23.10;1.00;;;;;;5034211;28;20195;-92
2022/08/20 10:17:28;;;;;;;10.97;2.93;;;23.10;99.90;;;;;;5051187;28;20232;-92
2022/08/20 10:20:17;;;;;;;9.40;2.70;;;22.70;1.00;;;;;;5034495;28;20602;-91
2022/08/20 10:23:08;;;;;;;7.47;2.77;;;22.70;1.00;;;;;;5053639;28;20192;-91
2022/08/20 10:25:50;;;;;;;7.17;2.60;;;22.90;1.00;;;;;;5051746;28;20210;-92
2022/08/20 10:28:54;;;;;;;8.70;2.50;;;23.10;99.90;;;;;;5051196;28;20183;-92
2022/08/20 10:31:30;;;;;;;10.03;3.73;;;23.20;99.90;;;;;;5053203;28;20185;-92
2022/08/20 10:34:10;;;;;;;7.73;2.47;;;23.20;1.00;;;;;;5053237;28;20213;-91
2022/08/20 10:36:51;;;;;;;7.63;2.70;;;23.10;35.50;;;;;;5056935;28;20200;-92
2022/08/20 10:39:38;;;;;;;7.17;2.20;;;23.00;1.00;;;;;;5059826;28;20225;-93
2022/08/20 10:42:28;;;;;;;8.50;2.57;;;23.00;1.00;;;;;;5026629;28;20188;-91
2022/08/20 10:45:16;;;;;;;8.30;2.57;;;22.90;99.90;;;;;;5041397;28;20236;-94
2022/08/20 10:47:48;;;;;;;9.33;3.17;;;23.00;99.90;;;;;;5057397;28;20169;-96
2022/08/20 10:50:41;;;;;;;8.40;3.10;;;22.90;1.00;;;;;;5059326;28;20178;-92
2022/08/20 10:53:35;;;;;;;7.60;2.30;;;22.90;1.00;;;;;;5058002;28;20306;-96
2022/08/20 10:56:41;;;;;;;8.87;3.00;;;22.80;99.90;;;;;;5059194;28;20227;-92
2022/08/20 10:59:08;;;;;;;8.63;3.27;;;22.70;99.90;;;;;;5056586;28;20173;-93
2022/08/20 11:01:56;;;;;;;7.83;2.83;;;22.80;99.90;;;;;;5040806;28;20171;-96
2022/08/20 11:04:26;;;;;;;6.80;2.90;;;22.90;17.20;;;;;;5041221;28;20204;-95
2022/08/20 11:06:55;;;;;;;7.07;2.70;;;23.10;99.90;;;;;;5056775;28;20200;-94
2022/08/20 11:09:41;;;;;;;7.93;2.57;;;23.30;1.00;;;;;;5053641;28;20200;-93
2022/08/20 11:12:40;;;;;;;8.10;2.67;;;23.50;99.90;;;;;;5058908;28;20207;-93
2022/08/20 11:15:43;;;;;;;7.07;2.43;;;23.60;1.00;;;;;;5060279;28;20172;-91
2022/08/20 11:18:19;;;;;;;7.10;2.40;;;23.60;99.90;;;;;;5061184;28;20164;-95
2022/08/20 11:21:00;;;;;;;8.80;3.07;;;23.50;99.90;;;;;;5061234;28;20162;-92
2022/08/20 11:23:42;;;;;;;9.57;3.30;;;23.50;99.90;;;;;;5061013;28;20575;-91
2022/08/20 11:26:20;;;;;;;8.60;2.93;;;23.60;99.90;;;;;;5060369;28;20177;-89
2022/08/20 11:29:26;;;;;;;7.57;2.77;;;23.60;1.00;;;;;;5053732;28;20177;-91
2022/08/20 11:31:57;;;;;;;6.97;3.33;;;23.20;1.00;;;;;;5045092;28;20177;-92
2022/08/20 11:34:23;;;;;;;8.77;2.73;;;23.00;1.00;;;;;;5038482;28;20218;-90
2022/08/20 11:37:08;;;;;;;10.70;3.30;;;23.10;1.00;;;;;;5040692;28;20559;-93
2022/08/20 11:40:08;;;;;;;10.27;3.00;;;23.00;1.00;;;;;;5043912;28;20200;-93
2022/08/20 11:42:50;;;;;;;7.80;2.80;;;23.10;99.90;;;;;;5047527;28;20228;-92
2022/08/20 11:45:33;;;;;;;8.70;2.47;;;23.10;1.00;;;;;;5049341;28;20189;-91
2022/08/20 11:48:00;;;;;;;8.50;2.93;;;23.00;99.90;;;;;;5047520;28;20272;-92
2022/08/20 11:50:35;;;;;;;6.63;2.37;;;23.10;1.00;;;;;;5045533;28;20534;-91
2022/08/20 11:53:08;;;;;;;8.07;2.47;;;23.20;1.00;;;;;;5033738;28;20225;-93
2022/08/20 11:55:45;;;;;;;7.03;2.37;;;23.40;1.00;;;;;;5051226;28;20177;-96
2022/08/20 11:58:20;;;;;;;7.57;2.63;;;23.60;99.90;;;;;;5044103;28;20238;-93
2022/08/20 12:00:49;;;;;;;6.53;2.40;;;23.60;1.00;;;;;;5024999;28;20276;-92
2022/08/20 12:03:23;;;;;;;6.47;2.37;;;23.40;99.90;;;;;;5041263;28;20188;-93
2022/08/20 12:05:50;;;;;;;9.20;2.43;;;23.50;99.90;;;;;;5040073;28;20180;-92
2022/08/20 12:08:28;;;;;;;8.10;2.20;;;23.60;1.00;;;;;;5053668;28;20256;-91
2022/08/20 12:11:01;;;;;;;8.60;2.13;;;23.40;1.00;;;;;;5058403;28;20172;-90
2022/08/20 12:13:30;;;;;;;7.17;2.33;;;23.30;25.90;;;;;;5047189;28;20255;-91
2022/08/20 12:15:56;;;;;;;5.27;1.77;;;23.40;99.90;;;;;;5042796;28;20188;-91
2022/08/20 12:18:48;;;;;;;5.37;2.00;;;23.60;99.90;;;;;;5039041;28;20201;-92
2022/08/20 12:21:16;;;;;;;6.97;2.30;;;23.70;1.00;;;;;;5023221;28;20664;-91
2022/08/20 12:24:01;;;;;;;8.10;2.00;;;23.80;99.90;;;;;;5023188;28;20192;-93
2022/08/20 12:27:12;;;;;;;7.53;2.40;;;23.80;1.00;;;;;;5041313;28;20240;-92
2022/08/20 12:29:40;;;;;;;6.30;2.00;;;23.70;99.90;;;;;;5036637;28;20180;-92
2022/08/20 12:32:08;;;;;;;7.27;2.00;;;23.80;99.90;;;;;;5050375;28;20206;-92
2022/08/20 12:34:45;;;;;;;8.43;2.23;;;23.90;99.90;;;;;;5049645;28;20254;-91
2022/08/20 12:37:19;;;;;;;4.83;1.70;;;24.00;1.00;;;;;;5025499;28;20184;-91
2022/08/20 12:39:54;;;;;;;7.97;1.97;;;23.80;1.00;;;;;;5039030;28;20276;-92
2022/08/20 12:42:32;;;;;;;13.23;2.97;;;23.90;1.00;;;;;;5040830;28;20259;-91
2022/08/20 12:45:08;;;;;;;7.07;1.97;;;24.30;99.90;;;;;;5038514;28;20178;-92
2022/08/20 12:47:44;;;;;;;7.50;1.90;;;24.60;99.90;;;;;;5040146;28;20216;-92
2022/08/20 12:50:24;;;;;;;6.33;3.03;;;24.70;1.00;;;;;;5021835;28;20185;-92
2022/08/20 12:52:52;;;;;;;5.97;2.07;;;24.50;99.90;;;;;;5037806;28;20748;-92
2022/08/20 12:55:19;;;;;;;4.37;1.70;;;24.20;1.00;;;;;;5038815;28;20512;-91
2022/08/20 12:57:51;;;;;;;5.67;1.80;;;24.10;1.00;;;;;;5038962;28;20227;-92
2022/08/20 13:00:25;;;;;;;6.43;2.10;;;24.00;1.00;;;;;;5037295;28;20185;-91
2022/08/20 13:02:54;;;;;;;4.63;1.97;;;24.10;1.00;;;;;;5039531;28;20228;-90
2022/08/20 13:05:30;;;;;;;4.70;2.10;;;24.20;1.00;;;;;;5039204;28;20193;-91
2022/08/20 13:08:00;;;;;;;4.93;1.70;;;24.30;1.00;;;;;;5036585;28;20649;-91
2022/08/20 13:10:31;;;;;;;6.77;3.67;;;24.20;29.10;;;;;;5037711;28;20173;-91
2022/08/20 13:13:02;;;;;;;6.30;2.03;;;23.90;1.00;;;;;;5035760;28;20710;-94
2022/08/20 13:15:30;;;;;;;8.10;1.90;;;23.70;19.70;;;;;;5036431;28;20177;-92
2022/08/20 13:18:19;;;;;;;5.03;2.00;;;23.80;99.90;;;;;;5036808;28;20501;-92
2022/08/20 13:21:27;;;;;;;5.33;1.70;;;24.00;99.90;;;;;;5049516;28;20185;-95
2022/08/20 13:24:13;;;;;;;6.17;1.80;;;24.10;99.90;;;;;;5005373;28;20671;-92
2022/08/20 13:27:17;;;;;;;3.83;1.30;;;24.20;1.00;;;;;;5055337;28;20214;-95
2022/08/20 13:29:56;;;;;;;4.30;1.60;;;24.40;99.90;;;;;;5056885;28;20200;-95
2022/08/20 13:32:34;;;;;;;4.70;1.70;;;24.20;1.00;;;;;;5053653;28;20217;-93
2022/08/20 13:35:07;;;;;;;4.63;1.60;;;24.20;1.00;;;;;;5056098;28;20151;-93
2022/08/20 13:37:33;;;;;;;4.20;1.63;;;24.40;99.90;;;;;;5056030;28;20203;-93